sensor_id;sensor_type;location;lat;lon;timestamp;P1;durP1;ratioP1;P2;durP2;ratioP2
31482;SDS011;18103;52.246;8.052;2023-06-26T00:00:33;5.77;;;4.63;;
31482;SDS011;18103;52.246;8.052;2023-06-26T00:02:59;7.93;;;5.00;;
31482;SDS011;18103;52.246;8.052;2023-06-26T00:05:24;7.13;;;4.93;;
31482;SDS011;18103;52.246;8.052;2023-06-26T00:07:53;6.87;;;5.20;;
31482;SDS011;18103;52.246;8.052;2023-06-26T00:10:20;6.60;;;5.17;;
31482;SDS011;18103;52.246;8.052;2023-06-26T00:12:46;7.23;;;5.30;;
31482;SDS011;18103;52.246;8.052;2023-06-26T00:15:11;7.33;;;5.20;;
31482;SDS011;18103;52.246;8.052;2023-06-26T00:17:37;5.07;;;4.20;;
31482;SDS011;18103;52.246;8.052;2023-06-26T00:20:03;6.57;;;4.77;;
31482;SDS011;18103;52.246;8.052;2023-06-26T00:22:30;8.13;;;4.70;;
31482;SDS011;18103;52.246;8.052;2023-06-26T00:24:55;7.77;;;5.30;;
31482;SDS011;18103;52.246;8.052;2023-06-26T00:27:21;8.27;;;5.07;;
31482;SDS011;18103;52.246;8.052;2023-06-26T00:29:48;8.20;;;4.97;;
31482;SDS011;18103;52.246;8.052;2023-06-26T00:32:13;12.03;;;5.17;;
31482;SDS011;18103;52.246;8.052;2023-06-26T00:34:39;8.60;;;5.43;;
31482;SDS011;18103;52.246;8.052;2023-06-26T00:37:04;8.93;;;5.53;;
31482;SDS011;18103;52.246;8.052;2023-06-26T00:39:30;6.77;;;5.17;;
31482;SDS011;18103;52.246;8.052;2023-06-26T00:41:57;7.90;;;5.17;;
31482;SDS011;18103;52.246;8.052;2023-06-26T00:44:25;12.80;;;5.80;;
31482;SDS011;18103;52.246;8.052;2023-06-26T00:46:50;7.07;;;5.03;;
31482;SDS011;18103;52.246;8.052;2023-06-26T00:49:16;8.00;;;5.50;;
31482;SDS011;18103;52.246;8.052;2023-06-26T00:51:42;7.57;;;5.37;;
31482;SDS011;18103;52.246;8.052;2023-06-26T00:54:08;10.77;;;5.33;;
31482;SDS011;18103;52.246;8.052;2023-06-26T00:56:33;6.67;;;4.53;;
31482;SDS011;18103;52.246;8.052;2023-06-26T00:59:00;9.10;;;5.00;;
31482;SDS011;18103;52.246;8.052;2023-06-26T01:01:25;7.27;;;5.43;;
31482;SDS011;18103;52.246;8.052;2023-06-26T01:03:51;6.97;;;5.43;;
31482;SDS011;18103;52.246;8.052;2023-06-26T01:06:18;11.60;;;6.07;;
31482;SDS011;18103;52.246;8.052;2023-06-26T01:08:48;8.80;;;5.43;;
31482;SDS011;18103;52.246;8.052;2023-06-26T01:11:15;7.93;;;5.17;;
31482;SDS011;18103;52.246;8.052;2023-06-26T01:13:43;7.20;;;5.37;;
31482;SDS011;18103;52.246;8.052;2023-06-26T01:16:09;11.30;;;5.27;;
31482;SDS011;18103;52.246;8.052;2023-06-26T01:18:38;7.67;;;5.40;;
31482;SDS011;18103;52.246;8.052;2023-06-26T01:21:07;9.03;;;6.07;;
31482;SDS011;18103;52.246;8.052;2023-06-26T01:26:17;10.30;;;5.57;;
31482;SDS011;18103;52.246;8.052;2023-06-26T01:28:45;9.33;;;5.70;;
31482;SDS011;18103;52.246;8.052;2023-06-26T01:31:11;7.53;;;5.47;;
31482;SDS011;18103;52.246;8.052;2023-06-26T01:33:40;7.90;;;5.60;;
31482;SDS011;18103;52.246;8.052;2023-06-26T01:36:07;7.50;;;5.27;;
31482;SDS011;18103;52.246;8.052;2023-06-26T01:38:35;9.37;;;5.60;;
31482;SDS011;18103;52.246;8.052;2023-06-26T01:41:00;8.13;;;6.23;;
31482;SDS011;18103;52.246;8.052;2023-06-26T01:43:31;8.93;;;5.83;;
31482;SDS011;18103;52.246;8.052;2023-06-26T01:46:25;6.03;;;5.17;;
31482;SDS011;18103;52.246;8.052;2023-06-26T01:49:00;11.47;;;5.60;;
31482;SDS011;18103;52.246;8.052;2023-06-26T01:51:35;12.57;;;5.23;;
31482;SDS011;18103;52.246;8.052;2023-06-26T01:54:06;8.90;;;5.17;;
31482;SDS011;18103;52.246;8.052;2023-06-26T01:56:37;6.87;;;5.20;;
31482;SDS011;18103;52.246;8.052;2023-06-26T01:59:06;8.97;;;5.20;;
31482;SDS011;18103;52.246;8.052;2023-06-26T02:01:32;9.97;;;4.87;;
31482;SDS011;18103;52.246;8.052;2023-06-26T02:03:59;8.03;;;5.13;;
31482;SDS011;18103;52.246;8.052;2023-06-26T02:06:24;10.17;;;5.23;;
31482;SDS011;18103;52.246;8.052;2023-06-26T02:08:50;10.30;;;5.40;;
31482;SDS011;18103;52.246;8.052;2023-06-26T02:11:15;9.00;;;5.03;;
31482;SDS011;18103;52.246;8.052;2023-06-26T02:13:41;8.37;;;5.20;;
31482;SDS011;18103;52.246;8.052;2023-06-26T02:16:10;8.17;;;5.53;;
31482;SDS011;18103;52.246;8.052;2023-06-26T02:18:36;10.60;;;5.67;;
31482;SDS011;18103;52.246;8.052;2023-06-26T02:21:03;8.93;;;5.57;;
31482;SDS011;18103;52.246;8.052;2023-06-26T02:23:28;7.27;;;5.00;;
31482;SDS011;18103;52.246;8.052;2023-06-26T02:25:56;12.13;;;5.37;;
31482;SDS011;18103;52.246;8.052;2023-06-26T02:28:21;9.10;;;5.50;;
31482;SDS011;18103;52.246;8.052;2023-06-26T02:30:47;7.90;;;5.80;;
31482;SDS011;18103;52.246;8.052;2023-06-26T02:33:12;12.30;;;5.87;;
31482;SDS011;18103;52.246;8.052;2023-06-26T02:35:38;8.30;;;5.10;;
31482;SDS011;18103;52.246;8.052;2023-06-26T02:38:03;8.87;;;5.00;;
31482;SDS011;18103;52.246;8.052;2023-06-26T02:40:31;7.57;;;4.63;;
31482;SDS011;18103;52.246;8.052;2023-06-26T02:42:56;7.63;;;4.70;;
31482;SDS011;18103;52.246;8.052;2023-06-26T02:45:21;8.43;;;5.33;;
31482;SDS011;18103;52.246;8.052;2023-06-26T02:47:47;11.93;;;5.07;;
31482;SDS011;18103;52.246;8.052;2023-06-26T02:50:14;7.93;;;4.97;;
31482;SDS011;18103;52.246;8.052;2023-06-26T02:52:42;8.93;;;5.20;;
31482;SDS011;18103;52.246;8.052;2023-06-26T02:55:07;7.97;;;4.87;;
31482;SDS011;18103;52.246;8.052;2023-06-26T02:57:33;9.27;;;5.13;;
31482;SDS011;18103;52.246;8.052;2023-06-26T03:00:00;9.33;;;5.60;;
31482;SDS011;18103;52.246;8.052;2023-06-26T03:02:28;6.77;;;4.97;;
31482;SDS011;18103;52.246;8.052;2023-06-26T03:04:54;7.57;;;4.70;;
31482;SDS011;18103;52.246;8.052;2023-06-26T03:07:22;8.20;;;5.43;;
31482;SDS011;18103;52.246;8.052;2023-06-26T03:09:48;10.33;;;5.30;;
31482;SDS011;18103;52.246;8.052;2023-06-26T03:12:13;8.53;;;5.30;;
31482;SDS011;18103;52.246;8.052;2023-06-26T03:14:39;15.70;;;5.50;;
31482;SDS011;18103;52.246;8.052;2023-06-26T03:17:04;7.87;;;4.93;;
31482;SDS011;18103;52.246;8.052;2023-06-26T03:19:32;9.33;;;5.00;;
31482;SDS011;18103;52.246;8.052;2023-06-26T03:21:59;11.03;;;4.60;;
31482;SDS011;18103;52.246;8.052;2023-06-26T03:24:27;7.93;;;5.40;;
31482;SDS011;18103;52.246;8.052;2023-06-26T03:26:52;8.50;;;5.27;;
31482;SDS011;18103;52.246;8.052;2023-06-26T03:29:18;11.80;;;6.50;;
31482;SDS011;18103;52.246;8.052;2023-06-26T03:31:43;11.37;;;5.40;;
31482;SDS011;18103;52.246;8.052;2023-06-26T03:34:09;7.90;;;5.00;;
31482;SDS011;18103;52.246;8.052;2023-06-26T03:36:34;10.53;;;5.43;;
31482;SDS011;18103;52.246;8.052;2023-06-26T03:39:03;10.00;;;4.93;;
31482;SDS011;18103;52.246;8.052;2023-06-26T03:41:29;9.40;;;4.90;;
31482;SDS011;18103;52.246;8.052;2023-06-26T03:43:54;10.93;;;5.47;;
31482;SDS011;18103;52.246;8.052;2023-06-26T03:46:22;9.73;;;5.47;;
31482;SDS011;18103;52.246;8.052;2023-06-26T03:48:47;9.97;;;5.40;;
31482;SDS011;18103;52.246;8.052;2023-06-26T03:51:13;8.70;;;5.10;;
31482;SDS011;18103;52.246;8.052;2023-06-26T03:53:39;8.47;;;5.30;;
31482;SDS011;18103;52.246;8.052;2023-06-26T03:56:04;7.10;;;5.07;;
31482;SDS011;18103;52.246;8.052;2023-06-26T03:58:32;6.37;;;4.33;;
31482;SDS011;18103;52.246;8.052;2023-06-26T04:00:57;6.63;;;4.93;;
31482;SDS011;18103;52.246;8.052;2023-06-26T04:03:23;8.87;;;4.77;;
31482;SDS011;18103;52.246;8.052;2023-06-26T04:05:49;8.87;;;5.83;;
31482;SDS011;18103;52.246;8.052;2023-06-26T04:08:16;7.70;;;5.10;;
31482;SDS011;18103;52.246;8.052;2023-06-26T04:10:45;9.20;;;5.10;;
31482;SDS011;18103;52.246;8.052;2023-06-26T04:13:12;7.93;;;4.43;;
31482;SDS011;18103;52.246;8.052;2023-06-26T04:15:39;8.80;;;4.80;;
31482;SDS011;18103;52.246;8.052;2023-06-26T04:18:07;9.30;;;5.07;;
31482;SDS011;18103;52.246;8.052;2023-06-26T04:20:32;7.33;;;4.73;;
31482;SDS011;18103;52.246;8.052;2023-06-26T04:23:03;6.13;;;4.47;;
31482;SDS011;18103;52.246;8.052;2023-06-26T04:25:28;7.23;;;4.93;;
31482;SDS011;18103;52.246;8.052;2023-06-26T04:27:54;7.70;;;4.87;;
31482;SDS011;18103;52.246;8.052;2023-06-26T04:30:19;7.23;;;5.03;;
31482;SDS011;18103;52.246;8.052;2023-06-26T04:32:45;6.73;;;4.37;;
31482;SDS011;18103;52.246;8.052;2023-06-26T04:35:13;7.30;;;4.73;;
31482;SDS011;18103;52.246;8.052;2023-06-26T04:37:38;6.50;;;4.80;;
31482;SDS011;18103;52.246;8.052;2023-06-26T04:40:04;8.53;;;4.80;;
31482;SDS011;18103;52.246;8.052;2023-06-26T04:42:34;8.10;;;5.00;;
31482;SDS011;18103;52.246;8.052;2023-06-26T04:45:00;7.13;;;4.50;;
31482;SDS011;18103;52.246;8.052;2023-06-26T04:47:27;8.07;;;5.00;;
31482;SDS011;18103;52.246;8.052;2023-06-26T04:49:52;9.30;;;5.23;;
31482;SDS011;18103;52.246;8.052;2023-06-26T04:52:17;12.20;;;5.40;;
31482;SDS011;18103;52.246;8.052;2023-06-26T04:54:43;7.67;;;4.77;;
31482;SDS011;18103;52.246;8.052;2023-06-26T04:57:08;10.10;;;5.27;;
31482;SDS011;18103;52.246;8.052;2023-06-26T04:59:34;9.70;;;4.70;;
31482;SDS011;18103;52.246;8.052;2023-06-26T05:02:00;7.10;;;4.73;;
31482;SDS011;18103;52.246;8.052;2023-06-26T05:04:25;8.63;;;4.77;;
31482;SDS011;18103;52.246;8.052;2023-06-26T05:06:53;8.17;;;4.80;;
31482;SDS011;18103;52.246;8.052;2023-06-26T05:09:19;10.13;;;4.53;;
31482;SDS011;18103;52.246;8.052;2023-06-26T05:11:44;7.47;;;5.20;;
31482;SDS011;18103;52.246;8.052;2023-06-26T05:14:09;11.93;;;5.83;;
31482;SDS011;18103;52.246;8.052;2023-06-26T05:16:35;8.03;;;5.13;;
31482;SDS011;18103;52.246;8.052;2023-06-26T05:19:03;8.47;;;5.43;;
31482;SDS011;18103;52.246;8.052;2023-06-26T05:21:28;14.83;;;5.87;;
31482;SDS011;18103;52.246;8.052;2023-06-26T05:23:55;9.67;;;5.63;;
31482;SDS011;18103;52.246;8.052;2023-06-26T05:26:22;12.67;;;5.57;;
31482;SDS011;18103;52.246;8.052;2023-06-26T05:28:47;11.17;;;5.97;;
31482;SDS011;18103;52.246;8.052;2023-06-26T05:31:15;8.70;;;5.60;;
31482;SDS011;18103;52.246;8.052;2023-06-26T05:33:43;10.43;;;5.50;;
31482;SDS011;18103;52.246;8.052;2023-06-26T05:36:12;13.20;;;6.63;;
31482;SDS011;18103;52.246;8.052;2023-06-26T05:38:40;10.43;;;6.50;;
31482;SDS011;18103;52.246;8.052;2023-06-26T05:41:06;10.40;;;6.30;;
31482;SDS011;18103;52.246;8.052;2023-06-26T05:43:34;15.03;;;6.63;;
31482;SDS011;18103;52.246;8.052;2023-06-26T05:45:59;13.37;;;7.10;;
31482;SDS011;18103;52.246;8.052;2023-06-26T05:48:28;11.07;;;6.10;;
31482;SDS011;18103;52.246;8.052;2023-06-26T05:50:53;9.23;;;6.33;;
31482;SDS011;18103;52.246;8.052;2023-06-26T05:53:19;13.13;;;7.43;;
31482;SDS011;18103;52.246;8.052;2023-06-26T05:55:45;13.60;;;5.83;;
31482;SDS011;18103;52.246;8.052;2023-06-26T05:58:13;12.20;;;7.17;;
31482;SDS011;18103;52.246;8.052;2023-06-26T06:00:39;11.80;;;7.00;;
31482;SDS011;18103;52.246;8.052;2023-06-26T06:03:06;14.53;;;7.87;;
31482;SDS011;18103;52.246;8.052;2023-06-26T06:05:31;17.20;;;7.33;;
31482;SDS011;18103;52.246;8.052;2023-06-26T06:08:01;18.43;;;7.87;;
31482;SDS011;18103;52.246;8.052;2023-06-26T06:10:27;13.97;;;6.77;;
31482;SDS011;18103;52.246;8.052;2023-06-26T06:12:52;13.90;;;7.97;;
31482;SDS011;18103;52.246;8.052;2023-06-26T06:15:19;13.03;;;7.27;;
31482;SDS011;18103;52.246;8.052;2023-06-26T06:17:47;17.50;;;8.63;;
31482;SDS011;18103;52.246;8.052;2023-06-26T06:20:13;20.80;;;7.93;;
31482;SDS011;18103;52.246;8.052;2023-06-26T06:22:38;11.80;;;7.77;;
31482;SDS011;18103;52.246;8.052;2023-06-26T06:25:04;13.73;;;8.00;;
31482;SDS011;18103;52.246;8.052;2023-06-26T06:27:29;13.53;;;7.40;;
31482;SDS011;18103;52.246;8.052;2023-06-26T06:29:56;14.70;;;7.23;;
31482;SDS011;18103;52.246;8.052;2023-06-26T06:32:24;10.67;;;7.20;;
31482;SDS011;18103;52.246;8.052;2023-06-26T06:34:49;15.20;;;8.73;;
31482;SDS011;18103;52.246;8.052;2023-06-26T06:37:15;13.57;;;8.57;;
31482;SDS011;18103;52.246;8.052;2023-06-26T06:39:40;11.27;;;7.90;;
31482;SDS011;18103;52.246;8.052;2023-06-26T06:42:10;13.60;;;7.67;;
31482;SDS011;18103;52.246;8.052;2023-06-26T06:44:35;14.03;;;8.10;;
31482;SDS011;18103;52.246;8.052;2023-06-26T06:47:01;12.67;;;8.00;;
31482;SDS011;18103;52.246;8.052;2023-06-26T06:49:26;13.40;;;7.40;;
31482;SDS011;18103;52.246;8.052;2023-06-26T06:51:52;11.40;;;7.17;;
31482;SDS011;18103;52.246;8.052;2023-06-26T06:54:17;16.33;;;8.23;;
31482;SDS011;18103;52.246;8.052;2023-06-26T06:56:45;15.03;;;7.83;;
31482;SDS011;18103;52.246;8.052;2023-06-26T06:59:13;15.70;;;7.67;;
31482;SDS011;18103;52.246;8.052;2023-06-26T07:01:40;19.13;;;9.03;;
31482;SDS011;18103;52.246;8.052;2023-06-26T07:04:08;11.33;;;7.87;;
31482;SDS011;18103;52.246;8.052;2023-06-26T07:06:34;12.37;;;7.37;;
31482;SDS011;18103;52.246;8.052;2023-06-26T07:09:01;16.47;;;7.60;;
31482;SDS011;18103;52.246;8.052;2023-06-26T07:11:30;11.57;;;7.47;;
31482;SDS011;18103;52.246;8.052;2023-06-26T07:13:58;15.23;;;7.70;;
31482;SDS011;18103;52.246;8.052;2023-06-26T07:16:26;13.03;;;7.30;;
31482;SDS011;18103;52.246;8.052;2023-06-26T07:18:54;13.50;;;8.37;;
31482;SDS011;18103;52.246;8.052;2023-06-26T07:21:22;10.47;;;7.53;;
31482;SDS011;18103;52.246;8.052;2023-06-26T07:23:47;11.87;;;6.80;;
31482;SDS011;18103;52.246;8.052;2023-06-26T07:26:13;13.60;;;7.67;;
31482;SDS011;18103;52.246;8.052;2023-06-26T07:28:39;16.20;;;7.53;;
31482;SDS011;18103;52.246;8.052;2023-06-26T07:31:05;12.83;;;7.60;;
31482;SDS011;18103;52.246;8.052;2023-06-26T07:33:30;12.83;;;7.60;;
31482;SDS011;18103;52.246;8.052;2023-06-26T07:35:55;12.60;;;6.67;;
31482;SDS011;18103;52.246;8.052;2023-06-26T07:38:23;14.27;;;7.23;;
31482;SDS011;18103;52.246;8.052;2023-06-26T07:40:49;16.37;;;6.70;;
31482;SDS011;18103;52.246;8.052;2023-06-26T07:43:14;11.43;;;6.93;;
31482;SDS011;18103;52.246;8.052;2023-06-26T07:45:42;11.20;;;6.30;;
31482;SDS011;18103;52.246;8.052;2023-06-26T07:48:08;14.47;;;6.83;;
31482;SDS011;18103;52.246;8.052;2023-06-26T07:50:34;14.33;;;6.23;;
31482;SDS011;18103;52.246;8.052;2023-06-26T07:53:02;10.97;;;6.40;;
31482;SDS011;18103;52.246;8.052;2023-06-26T07:55:27;12.27;;;5.97;;
31482;SDS011;18103;52.246;8.052;2023-06-26T07:57:53;11.90;;;6.40;;
31482;SDS011;18103;52.246;8.052;2023-06-26T08:00:20;11.50;;;6.60;;
31482;SDS011;18103;52.246;8.052;2023-06-26T08:02:46;12.97;;;5.50;;
31482;SDS011;18103;52.246;8.052;2023-06-26T08:05:11;10.53;;;6.13;;
31482;SDS011;18103;52.246;8.052;2023-06-26T08:07:36;11.17;;;6.13;;
31482;SDS011;18103;52.246;8.052;2023-06-26T08:10:02;15.37;;;7.10;;
31482;SDS011;18103;52.246;8.052;2023-06-26T08:12:30;11.30;;;5.17;;
31482;SDS011;18103;52.246;8.052;2023-06-26T08:14:57;12.30;;;6.60;;
31482;SDS011;18103;52.246;8.052;2023-06-26T08:17:23;10.77;;;5.40;;
31482;SDS011;18103;52.246;8.052;2023-06-26T08:19:48;11.37;;;5.83;;
31482;SDS011;18103;52.246;8.052;2023-06-26T08:22:16;11.87;;;5.93;;
31482;SDS011;18103;52.246;8.052;2023-06-26T08:24:43;9.17;;;5.30;;
31482;SDS011;18103;52.246;8.052;2023-06-26T08:27:09;13.87;;;4.90;;
31482;SDS011;18103;52.246;8.052;2023-06-26T08:29:36;12.17;;;5.53;;
31482;SDS011;18103;52.246;8.052;2023-06-26T08:32:02;13.67;;;5.37;;
31482;SDS011;18103;52.246;8.052;2023-06-26T08:34:27;10.93;;;5.10;;
31482;SDS011;18103;52.246;8.052;2023-06-26T08:36:53;13.57;;;5.20;;
31482;SDS011;18103;52.246;8.052;2023-06-26T08:39:18;10.50;;;5.37;;
31482;SDS011;18103;52.246;8.052;2023-06-26T08:41:46;13.20;;;5.23;;
31482;SDS011;18103;52.246;8.052;2023-06-26T08:44:11;15.37;;;5.00;;
31482;SDS011;18103;52.246;8.052;2023-06-26T08:46:37;11.23;;;4.40;;
31482;SDS011;18103;52.246;8.052;2023-06-26T08:49:09;13.67;;;5.00;;
31482;SDS011;18103;52.246;8.052;2023-06-26T08:51:45;13.23;;;5.10;;
31482;SDS011;18103;52.246;8.052;2023-06-26T08:54:17;9.47;;;4.40;;
31482;SDS011;18103;52.246;8.052;2023-06-26T08:56:47;11.63;;;5.27;;
31482;SDS011;18103;52.246;8.052;2023-06-26T08:59:14;13.43;;;5.20;;
31482;SDS011;18103;52.246;8.052;2023-06-26T09:01:43;12.40;;;4.70;;
31482;SDS011;18103;52.246;8.052;2023-06-26T09:04:12;17.17;;;4.70;;
31482;SDS011;18103;52.246;8.052;2023-06-26T09:06:39;12.60;;;5.20;;
31482;SDS011;18103;52.246;8.052;2023-06-26T09:09:07;15.73;;;4.93;;
31482;SDS011;18103;52.246;8.052;2023-06-26T09:11:32;10.93;;;5.00;;
31482;SDS011;18103;52.246;8.052;2023-06-26T09:14:00;12.73;;;4.93;;
31482;SDS011;18103;52.246;8.052;2023-06-26T09:16:26;12.93;;;5.67;;
31482;SDS011;18103;52.246;8.052;2023-06-26T09:18:52;11.83;;;4.83;;
31482;SDS011;18103;52.246;8.052;2023-06-26T09:21:17;7.50;;;3.80;;
31482;SDS011;18103;52.246;8.052;2023-06-26T09:23:43;10.87;;;4.50;;
31482;SDS011;18103;52.246;8.052;2023-06-26T09:26:08;8.30;;;4.33;;
31482;SDS011;18103;52.246;8.052;2023-06-26T09:28:34;8.60;;;4.00;;
31482;SDS011;18103;52.246;8.052;2023-06-26T09:31:01;13.40;;;4.27;;
31482;SDS011;18103;52.246;8.052;2023-06-26T09:33:32;9.67;;;4.50;;
31482;SDS011;18103;52.246;8.052;2023-06-26T09:36:01;9.80;;;4.23;;
31482;SDS011;18103;52.246;8.052;2023-06-26T09:38:33;13.50;;;4.27;;
31482;SDS011;18103;52.246;8.052;2023-06-26T09:41:00;5.77;;;3.33;;
31482;SDS011;18103;52.246;8.052;2023-06-26T09:43:26;6.00;;;3.40;;
31482;SDS011;18103;52.246;8.052;2023-06-26T09:45:52;5.23;;;3.10;;
31482;SDS011;18103;52.246;8.052;2023-06-26T09:48:19;7.70;;;3.83;;
31482;SDS011;18103;52.246;8.052;2023-06-26T09:50:46;10.30;;;3.23;;
31482;SDS011;18103;52.246;8.052;2023-06-26T09:53:15;9.37;;;3.80;;
31482;SDS011;18103;52.246;8.052;2023-06-26T09:55:43;8.07;;;3.03;;
31482;SDS011;18103;52.246;8.052;2023-06-26T09:58:10;13.73;;;3.57;;
31482;SDS011;18103;52.246;8.052;2023-06-26T10:00:40;7.13;;;3.10;;
31482;SDS011;18103;52.246;8.052;2023-06-26T10:03:12;7.83;;;2.70;;
31482;SDS011;18103;52.246;8.052;2023-06-26T10:05:40;5.83;;;2.43;;
31482;SDS011;18103;52.246;8.052;2023-06-26T10:08:09;5.60;;;2.33;;
31482;SDS011;18103;52.246;8.052;2023-06-26T10:10:36;3.83;;;2.10;;
31482;SDS011;18103;52.246;8.052;2023-06-26T10:13:05;5.63;;;1.73;;
31482;SDS011;18103;52.246;8.052;2023-06-26T10:15:36;5.33;;;2.30;;
31482;SDS011;18103;52.246;8.052;2023-06-26T10:18:06;3.97;;;2.37;;
31482;SDS011;18103;52.246;8.052;2023-06-26T10:20:32;3.13;;;1.93;;
31482;SDS011;18103;52.246;8.052;2023-06-26T10:22:59;3.00;;;1.80;;
31482;SDS011;18103;52.246;8.052;2023-06-26T10:25:29;6.90;;;2.30;;
31482;SDS011;18103;52.246;8.052;2023-06-26T10:27:57;3.13;;;2.03;;
31482;SDS011;18103;52.246;8.052;2023-06-26T10:30:28;4.33;;;2.03;;
31482;SDS011;18103;52.246;8.052;2023-06-26T10:32:56;5.80;;;2.07;;
31482;SDS011;18103;52.246;8.052;2023-06-26T10:35:23;4.57;;;1.97;;
31482;SDS011;18103;52.246;8.052;2023-06-26T10:37:49;4.23;;;1.80;;
31482;SDS011;18103;52.246;8.052;2023-06-26T10:40:21;2.60;;;1.40;;
31482;SDS011;18103;52.246;8.052;2023-06-26T10:42:50;2.80;;;1.90;;
31482;SDS011;18103;52.246;8.052;2023-06-26T10:45:16;6.80;;;2.27;;
31482;SDS011;18103;52.246;8.052;2023-06-26T10:47:48;3.93;;;1.37;;
31482;SDS011;18103;52.246;8.052;2023-06-26T10:50:30;4.30;;;1.83;;
31482;SDS011;18103;52.246;8.052;2023-06-26T10:55:34;5.83;;;1.97;;
31482;SDS011;18103;52.246;8.052;2023-06-26T10:58:01;5.17;;;1.87;;
31482;SDS011;18103;52.246;8.052;2023-06-26T11:00:29;3.70;;;1.83;;
31482;SDS011;18103;52.246;8.052;2023-06-26T11:02:59;3.27;;;1.83;;
31482;SDS011;18103;52.246;8.052;2023-06-26T11:05:44;3.67;;;1.90;;
31482;SDS011;18103;52.246;8.052;2023-06-26T11:08:13;5.97;;;1.80;;
31482;SDS011;18103;52.246;8.052;2023-06-26T11:10:50;3.00;;;1.73;;
31482;SDS011;18103;52.246;8.052;2023-06-26T11:13:24;4.63;;;1.80;;
31482;SDS011;18103;52.246;8.052;2023-06-26T11:15:51;2.53;;;1.47;;
31482;SDS011;18103;52.246;8.052;2023-06-26T11:18:21;3.43;;;1.90;;
31482;SDS011;18103;52.246;8.052;2023-06-26T11:20:54;3.60;;;1.87;;
31482;SDS011;18103;52.246;8.052;2023-06-26T11:23:32;8.47;;;1.80;;
31482;SDS011;18103;52.246;8.052;2023-06-26T11:26:12;8.30;;;1.67;;
31482;SDS011;18103;52.246;8.052;2023-06-26T11:28:50;2.77;;;1.50;;
31482;SDS011;18103;52.246;8.052;2023-06-26T11:31:57;7.93;;;1.80;;
31482;SDS011;18103;52.246;8.052;2023-06-26T11:34:09;3.53;;;2.17;;
31482;SDS011;18103;52.246;8.052;2023-06-26T11:36:37;5.87;;;1.70;;
31482;SDS011;18103;52.246;8.052;2023-06-26T11:39:07;6.93;;;1.97;;
31482;SDS011;18103;52.246;8.052;2023-06-26T11:41:37;4.23;;;2.07;;
31482;SDS011;18103;52.246;8.052;2023-06-26T11:44:07;2.60;;;1.60;;
31482;SDS011;18103;52.246;8.052;2023-06-26T11:46:37;3.97;;;1.70;;
31482;SDS011;18103;52.246;8.052;2023-06-26T11:49:06;4.23;;;1.60;;
31482;SDS011;18103;52.246;8.052;2023-06-26T11:51:32;4.63;;;2.10;;
31482;SDS011;18103;52.246;8.052;2023-06-26T11:54:00;5.37;;;2.10;;
31482;SDS011;18103;52.246;8.052;2023-06-26T11:56:28;4.80;;;1.57;;
31482;SDS011;18103;52.246;8.052;2023-06-26T11:59:00;1.83;;;1.40;;
31482;SDS011;18103;52.246;8.052;2023-06-26T12:01:33;7.90;;;1.77;;
31482;SDS011;18103;52.246;8.052;2023-06-26T12:04:01;4.93;;;1.80;;
31482;SDS011;18103;52.246;8.052;2023-06-26T12:06:35;4.13;;;1.60;;
31482;SDS011;18103;52.246;8.052;2023-06-26T12:09:05;2.37;;;1.53;;
31482;SDS011;18103;52.246;8.052;2023-06-26T12:11:32;5.07;;;1.43;;
31482;SDS011;18103;52.246;8.052;2023-06-26T12:13:59;5.83;;;1.60;;
31482;SDS011;18103;52.246;8.052;2023-06-26T12:16:26;5.03;;;1.70;;
31482;SDS011;18103;52.246;8.052;2023-06-26T12:18:57;2.63;;;1.43;;
31482;SDS011;18103;52.246;8.052;2023-06-26T12:24:09;2.93;;;1.80;;
31482;SDS011;18103;52.246;8.052;2023-06-26T12:26:41;5.90;;;1.60;;
31482;SDS011;18103;52.246;8.052;2023-06-26T12:29:12;4.77;;;1.83;;
31482;SDS011;18103;52.246;8.052;2023-06-26T12:31:42;3.07;;;1.53;;
31482;SDS011;18103;52.246;8.052;2023-06-26T12:34:11;3.60;;;1.67;;
31482;SDS011;18103;52.246;8.052;2023-06-26T12:36:43;2.50;;;1.63;;
31482;SDS011;18103;52.246;8.052;2023-06-26T12:39:10;2.17;;;1.43;;
31482;SDS011;18103;52.246;8.052;2023-06-26T12:41:51;2.73;;;1.50;;
31482;SDS011;18103;52.246;8.052;2023-06-26T12:44:30;4.30;;;1.53;;
31482;SDS011;18103;52.246;8.052;2023-06-26T12:46:59;6.50;;;2.10;;
31482;SDS011;18103;52.246;8.052;2023-06-26T12:49:38;6.13;;;1.70;;
31482;SDS011;18103;52.246;8.052;2023-06-26T12:52:08;3.70;;;1.77;;
31482;SDS011;18103;52.246;8.052;2023-06-26T12:54:39;5.47;;;1.60;;
31482;SDS011;18103;52.246;8.052;2023-06-26T12:57:05;5.37;;;1.97;;
31482;SDS011;18103;52.246;8.052;2023-06-26T12:59:32;4.33;;;1.80;;
31482;SDS011;18103;52.246;8.052;2023-06-26T13:02:03;5.47;;;2.20;;
31482;SDS011;18103;52.246;8.052;2023-06-26T13:04:29;6.07;;;1.80;;
31482;SDS011;18103;52.246;8.052;2023-06-26T13:06:55;5.60;;;2.03;;
31482;SDS011;18103;52.246;8.052;2023-06-26T13:09:22;6.77;;;1.83;;
31482;SDS011;18103;52.246;8.052;2023-06-26T13:11:51;4.50;;;1.70;;
31482;SDS011;18103;52.246;8.052;2023-06-26T13:14:19;3.13;;;1.70;;
31482;SDS011;18103;52.246;8.052;2023-06-26T13:16:47;4.57;;;1.87;;
31482;SDS011;18103;52.246;8.052;2023-06-26T13:19:15;3.33;;;1.60;;
31482;SDS011;18103;52.246;8.052;2023-06-26T13:21:40;9.03;;;2.10;;
31482;SDS011;18103;52.246;8.052;2023-06-26T13:24:06;1.73;;;1.53;;
31482;SDS011;18103;52.246;8.052;2023-06-26T13:26:34;5.60;;;2.13;;
31482;SDS011;18103;52.246;8.052;2023-06-26T13:29:00;3.67;;;1.90;;
31482;SDS011;18103;52.246;8.052;2023-06-26T13:31:25;7.10;;;1.83;;
31482;SDS011;18103;52.246;8.052;2023-06-26T13:33:53;8.87;;;2.00;;
31482;SDS011;18103;52.246;8.052;2023-06-26T13:36:19;3.93;;;1.80;;
31482;SDS011;18103;52.246;8.052;2023-06-26T13:38:44;5.33;;;1.60;;
31482;SDS011;18103;52.246;8.052;2023-06-26T13:41:20;1.47;;;1.27;;
31482;SDS011;18103;52.246;8.052;2023-06-26T13:43:49;2.47;;;1.20;;
31482;SDS011;18103;52.246;8.052;2023-06-26T13:46:17;3.67;;;1.10;;
31482;SDS011;18103;52.246;8.052;2023-06-26T13:48:45;2.30;;;1.20;;
31482;SDS011;18103;52.246;8.052;2023-06-26T13:51:13;2.83;;;1.20;;
31482;SDS011;18103;52.246;8.052;2023-06-26T13:53:41;4.23;;;1.07;;
31482;SDS011;18103;52.246;8.052;2023-06-26T13:56:06;4.77;;;1.23;;
31482;SDS011;18103;52.246;8.052;2023-06-26T13:58:34;3.70;;;1.30;;
31482;SDS011;18103;52.246;8.052;2023-06-26T14:01:01;3.33;;;1.20;;
31482;SDS011;18103;52.246;8.052;2023-06-26T14:03:26;2.67;;;1.33;;
31482;SDS011;18103;52.246;8.052;2023-06-26T14:05:55;8.23;;;1.37;;
31482;SDS011;18103;52.246;8.052;2023-06-26T14:08:22;1.83;;;1.07;;
31482;SDS011;18103;52.246;8.052;2023-06-26T14:10:48;1.93;;;0.80;;
31482;SDS011;18103;52.246;8.052;2023-06-26T14:13:13;3.33;;;1.50;;
31482;SDS011;18103;52.246;8.052;2023-06-26T14:15:40;3.57;;;1.33;;
31482;SDS011;18103;52.246;8.052;2023-06-26T14:18:06;2.53;;;1.20;;
31482;SDS011;18103;52.246;8.052;2023-06-26T14:20:32;3.17;;;1.40;;
31482;SDS011;18103;52.246;8.052;2023-06-26T14:23:00;3.40;;;1.17;;
31482;SDS011;18103;52.246;8.052;2023-06-26T14:25:30;5.07;;;1.50;;
31482;SDS011;18103;52.246;8.052;2023-06-26T14:27:58;1.57;;;0.93;;
31482;SDS011;18103;52.246;8.052;2023-06-26T14:30:24;11.23;;;1.60;;
31482;SDS011;18103;52.246;8.052;2023-06-26T14:32:49;5.77;;;1.30;;
31482;SDS011;18103;52.246;8.052;2023-06-26T14:35:15;3.57;;;1.20;;
31482;SDS011;18103;52.246;8.052;2023-06-26T14:37:43;4.87;;;1.50;;
31482;SDS011;18103;52.246;8.052;2023-06-26T14:40:09;3.73;;;1.57;;
31482;SDS011;18103;52.246;8.052;2023-06-26T14:42:34;2.50;;;1.20;;
31482;SDS011;18103;52.246;8.052;2023-06-26T14:45:02;4.43;;;1.30;;
31482;SDS011;18103;52.246;8.052;2023-06-26T14:47:30;1.90;;;1.27;;
31482;SDS011;18103;52.246;8.052;2023-06-26T14:49:56;11.33;;;2.90;;
31482;SDS011;18103;52.246;8.052;2023-06-26T14:52:26;4.07;;;1.10;;